createdAt,value
2018-01-11T00:16:58.478Z,13.30
2018-01-11T00:19:27.138Z,12.87
2018-01-11T00:21:55.064Z,13.07
2018-01-11T00:24:23.865Z,13.17
2018-01-11T00:26:52.592Z,12.57
2018-01-11T00:29:20.538Z,12.33
2018-01-11T00:31:48.592Z,13.00
2018-01-11T00:34:17.257Z,12.20
2018-01-11T00:36:46.382Z,12.50
2018-01-11T00:39:14.447Z,12.40
2018-01-11T00:41:43.128Z,13.27
2018-01-11T00:44:11.894Z,12.10
2018-01-11T00:46:40.125Z,13.37
2018-01-11T00:49:08.105Z,12.17
2018-01-11T00:51:36.051Z,13.87
2018-01-11T00:54:04.145Z,13.57
2018-01-11T00:56:32.246Z,14.10
2018-01-11T00:59:01.022Z,15.17
2018-01-11T01:01:29.114Z,14.03
2018-01-11T01:03:57.094Z,14.20
2018-01-11T01:06:25.172Z,13.63
2018-01-11T01:08:53.598Z,15.07
2018-01-11T01:11:21.693Z,14.53
2018-01-11T01:13:49.687Z,15.70
2018-01-11T01:16:17.940Z,13.63
2018-01-11T01:18:46.082Z,14.47
2018-01-11T01:21:14.153Z,14.43
2018-01-11T01:23:42.217Z,14.30
2018-01-11T01:26:11.046Z,15.20
2018-01-11T01:28:39.111Z,15.83
2018-01-11T01:31:07.308Z,15.00
2018-01-11T01:33:36.017Z,14.60
2018-01-11T01:36:04.233Z,14.70
2018-01-11T01:38:32.351Z,14.90
2018-01-11T01:41:00.344Z,13.63
2018-01-11T01:43:28.876Z,14.37
2018-01-11T01:45:57.018Z,14.87
2018-01-11T01:48:37.173Z,14.00
2018-01-11T01:51:05.980Z,15.60
2018-01-11T01:53:33.945Z,14.50
2018-01-11T01:56:02.122Z,12.80
2018-01-11T01:58:30.195Z,14.40
2018-01-11T02:00:58.899Z,14.17
2018-01-11T02:03:26.883Z,13.87
2018-01-11T02:05:54.959Z,12.33
2018-01-11T02:08:22.900Z,12.80
2018-01-11T02:10:50.835Z,13.00
2018-01-11T02:13:18.888Z,14.10
2018-01-11T02:15:46.846Z,12.77
2018-01-11T02:18:14.769Z,12.83
2018-01-11T02:20:43.696Z,13.73
2018-01-11T02:23:11.607Z,13.50
2018-01-11T02:25:39.548Z,12.20
2018-01-11T02:28:07.591Z,12.70
2018-01-11T02:30:35.572Z,11.97
2018-01-11T02:33:03.545Z,12.83
2018-01-11T02:35:31.612Z,13.33
2018-01-11T02:37:59.534Z,13.73
2018-01-11T02:40:27.589Z,13.60
2018-01-11T02:42:55.658Z,12.57
2018-01-11T02:45:23.611Z,11.80
2018-01-11T02:47:51.595Z,13.40
2018-01-11T02:50:19.794Z,11.83
2018-01-11T02:52:47.724Z,13.67
2018-01-11T02:55:15.656Z,12.87
2018-01-11T02:57:44.454Z,12.23
2018-01-11T03:00:13.816Z,12.20
2018-01-11T03:02:41.763Z,12.27
2018-01-11T03:05:22.047Z,12.30
2018-01-11T03:07:50.369Z,12.30
2018-01-11T03:10:18.300Z,13.07
2018-01-11T03:12:46.226Z,12.00
2018-01-11T03:15:14.161Z,10.67
2018-01-11T03:17:42.925Z,11.13
2018-01-11T03:20:10.863Z,11.70
2018-01-11T03:22:38.946Z,12.37
2018-01-11T03:25:07.013Z,13.43
2018-01-11T03:27:34.949Z,11.07
2018-01-11T03:30:03.769Z,11.57
2018-01-11T03:32:31.833Z,11.53
2018-01-11T03:34:59.777Z,11.23
2018-01-11T03:37:28.462Z,11.80
2018-01-11T03:39:57.290Z,12.07
2018-01-11T03:42:25.233Z,14.50
2018-01-11T03:44:53.163Z,12.83
2018-01-11T03:47:21.225Z,12.00
2018-01-11T03:49:49.143Z,12.00
2018-01-11T03:52:17.077Z,12.53
2018-01-11T03:54:45.177Z,14.50
2018-01-11T03:57:13.899Z,11.80
2018-01-11T03:59:41.844Z,14.00
2018-01-11T04:02:09.917Z,13.80
2018-01-11T04:04:37.912Z,12.03
2018-01-11T04:07:05.896Z,13.83
2018-01-11T04:09:34.025Z,14.70
2018-01-11T04:12:02.722Z,13.50
2018-01-11T04:14:30.656Z,12.70
2018-01-11T04:16:58.859Z,15.10
2018-01-11T04:19:27.544Z,15.77
2018-01-11T04:21:56.212Z,14.93
2018-01-11T04:24:24.399Z,16.93
2018-01-11T04:26:53.133Z,16.10
2018-01-11T04:29:21.077Z,16.90
2018-01-11T04:31:49.178Z,15.93
2018-01-11T04:34:17.136Z,16.13
2018-01-11T04:36:45.144Z,16.50
2018-01-11T04:39:13.208Z,17.60
2018-01-11T04:41:41.136Z,16.93
2018-01-11T04:44:09.124Z,17.10
2018-01-11T04:46:37.249Z,15.50
2018-01-11T04:49:05.208Z,15.60
2018-01-11T04:51:33.147Z,16.90
2018-01-11T04:54:01.448Z,17.47
2018-01-11T04:56:31.283Z,18.67
2018-01-11T04:58:59.281Z,17.50
2018-01-11T05:01:27.340Z,18.00
2018-01-11T05:03:56.020Z,20.10
2018-01-11T05:06:24.777Z,19.23
2018-01-11T05:08:52.836Z,17.07
2018-01-11T05:11:20.785Z,19.23
2018-01-11T05:13:48.714Z,19.33
2018-01-11T05:16:16.873Z,18.93
2018-01-11T05:18:44.837Z,18.70
2018-01-11T05:21:12.760Z,19.27
2018-01-11T05:23:40.785Z,17.70
2018-01-11T05:26:08.904Z,18.23
2018-01-11T05:28:36.796Z,16.17
2018-01-11T05:31:04.840Z,17.90
2018-01-11T05:33:33.495Z,19.07
2018-01-11T05:36:01.388Z,16.90
2018-01-11T05:38:30.158Z,17.50
2018-01-11T05:40:58.046Z,17.47
2018-01-11T05:43:25.997Z,17.80
2018-01-11T05:45:54.043Z,18.23
2018-01-11T05:48:21.945Z,20.10
2018-01-11T05:50:50.581Z,17.63
2018-01-11T05:53:18.602Z,19.00
2018-01-11T05:55:47.212Z,17.10
2018-01-11T05:58:15.080Z,19.37
2018-01-11T06:00:43.088Z,18.53
2018-01-11T06:03:11.006Z,18.23
2018-01-11T06:05:39.634Z,19.27
2018-01-11T06:08:07.634Z,18.37
2018-01-11T06:10:35.528Z,17.67
2018-01-11T06:13:04.206Z,18.30
2018-01-11T06:15:32.222Z,19.97
2018-01-11T06:18:00.100Z,19.00
2018-01-11T06:20:27.986Z,16.47
2018-01-11T06:22:56.021Z,17.67
2018-01-11T06:25:24.077Z,19.10
2018-01-11T06:27:52.862Z,18.10
2018-01-11T06:30:21.644Z,17.57
2018-01-11T06:32:49.548Z,17.70
2018-01-11T06:35:17.489Z,16.20
2018-01-11T06:37:46.264Z,14.53
2018-01-11T06:40:14.929Z,14.53
2018-01-11T06:42:42.869Z,14.13
2018-01-11T06:45:10.892Z,13.50
2018-01-11T06:47:38.772Z,14.37
2018-01-11T06:50:07.398Z,14.03
2018-01-11T06:52:35.396Z,13.50
2018-01-11T06:55:03.293Z,12.50
2018-01-11T06:57:31.958Z,7.17
2018-01-11T06:59:59.978Z,6.43
2018-01-11T07:02:28.028Z,5.50
2018-01-11T07:04:56.709Z,6.40
2018-01-11T07:07:25.461Z,6.37
2018-01-11T07:09:53.340Z,5.67
2018-01-11T07:12:21.227Z,5.50
2018-01-11T07:14:49.269Z,5.10
2018-01-11T07:17:17.272Z,5.00
2018-01-11T07:19:45.165Z,4.90
2018-01-11T07:22:13.935Z,6.30
2018-01-11T07:24:42.576Z,6.20
2018-01-11T07:27:10.500Z,5.00
2018-01-11T07:29:39.453Z,5.87
2018-01-11T07:32:07.394Z,6.70
2018-01-11T07:34:35.335Z,5.57
2018-01-11T07:37:04.190Z,5.80
2018-01-11T07:39:32.235Z,5.47
2018-01-11T07:42:00.170Z,6.03
2018-01-11T07:44:28.966Z,5.30
2018-01-11T07:46:57.697Z,5.03
2018-01-11T07:49:25.626Z,4.30
2018-01-11T07:51:53.693Z,5.00
2018-01-11T07:54:22.382Z,4.60
2018-01-11T07:56:51.117Z,4.40
2018-01-11T07:59:19.175Z,5.13
2018-01-11T08:01:47.094Z,5.87
2018-01-11T08:04:15.026Z,4.73
2018-01-11T08:06:43.122Z,6.30
2018-01-11T08:09:11.075Z,5.10
2018-01-11T08:11:39.024Z,6.27
2018-01-11T08:14:07.102Z,5.80
2018-01-11T08:16:35.094Z,4.90
2018-01-11T08:19:03.024Z,5.50
2018-01-11T08:21:31.116Z,5.10
2018-01-11T08:23:59.056Z,5.50
2018-01-11T08:26:27.797Z,5.70
2018-01-11T08:28:55.854Z,5.03
2018-01-11T08:31:23.922Z,4.63
2018-01-11T08:33:51.862Z,4.33
2018-01-11T08:36:20.038Z,4.23
2018-01-11T08:38:47.986Z,4.50
2018-01-11T08:41:16.756Z,4.73
2018-01-11T08:43:44.808Z,5.77
2018-01-11T08:46:12.846Z,5.20
2018-01-11T08:48:40.841Z,5.20
2018-01-11T08:51:08.904Z,4.27
2018-01-11T08:53:36.890Z,5.03
2018-01-11T08:56:04.858Z,4.53
2018-01-11T08:58:32.912Z,5.10
2018-01-11T09:01:00.902Z,4.27
2018-01-11T09:03:28.849Z,4.07
2018-01-11T09:05:56.904Z,4.90
2018-01-11T09:08:25.609Z,4.13
2018-01-11T09:10:53.529Z,4.87
2018-01-11T09:13:21.593Z,4.60
2018-01-11T09:15:49.640Z,4.53
2018-01-11T09:18:17.602Z,4.23
2018-01-11T09:20:45.648Z,4.47
2018-01-11T09:23:15.845Z,3.90
2018-01-11T09:25:45.368Z,5.30
2018-01-11T09:28:14.717Z,4.40
2018-01-11T09:30:43.061Z,4.37
2018-01-11T09:33:12.245Z,4.43
2018-01-11T09:35:40.846Z,4.80
2018-01-11T09:38:08.929Z,4.97
2018-01-11T09:40:37.264Z,4.50
2018-01-11T09:43:06.192Z,3.63
2018-01-11T09:45:36.520Z,4.70
2018-01-11T09:48:05.140Z,4.70
2018-01-11T09:50:34.757Z,4.70
2018-01-11T09:53:03.396Z,4.07
2018-01-11T09:55:32.628Z,3.70
2018-01-11T09:58:01.729Z,4.50
2018-01-11T10:00:30.054Z,4.80
2018-01-11T10:02:57.968Z,4.37
2018-01-11T10:05:27.208Z,4.13
2018-01-11T10:07:55.610Z,4.90
2018-01-11T10:10:24.065Z,5.00
2018-01-11T10:12:53.337Z,4.70
2018-01-11T10:15:21.828Z,4.23
2018-01-11T10:17:49.752Z,4.27
2018-01-11T10:20:18.550Z,4.20
2018-01-11T10:22:47.056Z,4.30
2018-01-11T10:25:15.374Z,4.13
2018-01-11T10:27:43.608Z,4.37
2018-01-11T10:30:12.056Z,5.00
2018-01-11T10:32:41.401Z,4.60
2018-01-11T10:35:09.593Z,4.23
2018-01-11T10:37:38.406Z,4.73
2018-01-11T10:40:07.064Z,4.90
2018-01-11T10:42:35.463Z,5.07
2018-01-11T10:45:04.722Z,3.67
2018-01-11T10:47:33.847Z,3.90
2018-01-11T10:50:03.074Z,4.77
2018-01-11T10:52:31.180Z,4.97
2018-01-11T10:54:59.405Z,4.77
2018-01-11T10:57:28.013Z,4.70
2018-01-11T10:59:56.508Z,4.40
2018-01-11T11:02:31.089Z,4.67
2018-01-11T11:05:00.540Z,5.60
2018-01-11T11:07:28.893Z,5.00
2018-01-11T11:09:57.698Z,4.60
2018-01-11T11:12:26.486Z,5.13
2018-01-11T11:14:55.470Z,4.13
2018-01-11T11:17:25.192Z,5.13
2018-01-11T11:19:54.367Z,4.87
2018-01-11T11:22:22.280Z,5.43
2018-01-11T11:24:51.206Z,6.20
2018-01-11T11:27:19.657Z,5.40
2018-01-11T11:29:47.888Z,4.30
2018-01-11T11:32:16.292Z,4.77
2018-01-11T11:34:45.659Z,4.33
2018-01-11T11:37:14.950Z,5.33
2018-01-11T11:39:43.885Z,4.70
2018-01-11T11:42:15.390Z,5.13
2018-01-11T11:44:45.146Z,4.83
2018-01-11T11:47:14.192Z,6.17
2018-01-11T11:49:42.964Z,5.60
2018-01-11T11:52:12.274Z,5.63
2018-01-11T11:54:40.893Z,5.10
2018-01-11T11:57:09.924Z,5.50
2018-01-11T11:59:38.204Z,5.20
2018-01-11T12:02:07.929Z,5.70
2018-01-11T12:04:37.096Z,4.83
2018-01-11T12:07:05.965Z,4.77
2018-01-11T12:09:34.320Z,5.00
2018-01-11T12:12:03.843Z,5.77
2018-01-11T12:14:33.566Z,5.30
2018-01-11T12:17:02.216Z,4.80
2018-01-11T12:19:30.715Z,5.13
2018-01-11T12:21:58.809Z,4.87
2018-01-11T12:24:27.453Z,4.73
2018-01-11T12:26:56.205Z,5.13
2018-01-11T12:29:25.344Z,5.37
2018-01-11T12:31:56.352Z,5.50
2018-01-11T12:34:27.138Z,5.03
2018-01-11T12:36:55.722Z,4.70
2018-01-11T12:39:24.389Z,4.43
2018-01-11T12:41:54.392Z,5.57
2018-01-11T12:44:23.886Z,5.23
2018-01-11T12:46:54.400Z,4.03
2018-01-11T12:49:23.142Z,4.13
2018-01-11T12:51:52.370Z,4.50
2018-01-11T12:54:20.852Z,4.43
2018-01-11T12:56:49.415Z,4.50
2018-01-11T12:59:18.067Z,5.07
2018-01-11T13:01:46.493Z,4.50
2018-01-11T13:04:14.542Z,4.53
2018-01-11T13:06:45.834Z,4.73
2018-01-11T13:09:14.945Z,5.23
2018-01-11T13:11:44.223Z,4.47
2018-01-11T13:14:12.542Z,4.67
2018-01-11T13:16:41.512Z,4.53
2018-01-11T13:19:10.040Z,4.30
2018-01-11T13:21:38.728Z,5.00
2018-01-11T13:24:07.868Z,4.20
2018-01-11T13:26:35.840Z,4.50
2018-01-11T13:29:05.392Z,4.10
2018-01-11T13:31:35.921Z,5.40
2018-01-11T13:34:04.964Z,4.77
2018-01-11T13:36:33.407Z,5.10
2018-01-11T13:39:01.786Z,4.73
2018-01-11T13:41:31.788Z,4.70
2018-01-11T13:44:00.704Z,4.73
2018-01-11T13:55:10.042Z,5.50
2018-01-11T13:57:42.754Z,4.47
2018-01-11T14:00:12.710Z,4.67
2018-01-11T14:02:40.727Z,5.63
2018-01-11T14:05:08.917Z,5.23
2018-01-11T14:07:37.036Z,4.07
2018-01-11T14:10:05.045Z,5.03
2018-01-11T14:12:34.209Z,5.57
2018-01-11T14:15:02.143Z,4.60
2018-01-11T14:17:30.858Z,4.63
2018-01-11T14:19:58.937Z,4.37
2018-01-11T14:22:26.873Z,5.30
2018-01-11T14:24:54.881Z,5.63
2018-01-11T14:27:22.964Z,5.40
2018-01-11T14:29:50.906Z,5.33
2018-01-11T14:32:19.669Z,5.60
2018-01-11T14:34:47.739Z,4.60
2018-01-11T14:37:15.693Z,5.00
2018-01-11T14:39:43.660Z,4.43
2018-01-11T14:42:11.973Z,4.50
2018-01-11T14:44:40.686Z,4.57
2018-01-11T14:47:08.744Z,4.37
2018-01-11T14:49:37.749Z,5.00
2018-01-11T14:52:08.455Z,4.50
2018-01-11T14:54:50.394Z,4.37
2018-01-11T15:14:50.772Z,5.10
2018-01-11T15:17:19.741Z,5.40
2018-01-11T15:19:48.139Z,5.00
2018-01-11T15:25:01.700Z,4.50
2018-01-11T15:27:30.380Z,5.03
2018-01-11T15:30:11.875Z,5.27
2018-01-11T15:32:40.371Z,5.83
2018-01-11T15:35:08.341Z,5.33
2018-01-11T15:37:36.277Z,5.97
2018-01-11T15:40:04.422Z,5.47
2018-01-11T15:42:32.489Z,5.10
2018-01-11T15:45:00.538Z,4.83
2018-01-11T15:47:28.628Z,5.00
2018-01-11T15:49:56.570Z,5.83
2018-01-11T15:52:24.561Z,5.70
2018-01-11T15:54:52.608Z,5.57
2018-01-11T15:57:20.630Z,5.87
2018-01-11T15:59:49.312Z,5.67
2018-01-11T16:02:17.356Z,7.03
2018-01-11T16:04:45.276Z,6.10
2018-01-11T16:07:14.004Z,6.00
2018-01-11T16:09:42.062Z,4.83
2018-01-11T16:12:10.005Z,4.80
2018-01-11T16:14:38.737Z,5.10
2018-01-11T16:20:04.676Z,5.60
2018-01-11T16:22:32.799Z,5.67
2018-01-11T16:25:01.552Z,5.03
2018-01-11T16:27:35.792Z,5.23
2018-01-11T16:30:03.761Z,5.20
2018-01-11T16:32:31.707Z,5.60
2018-01-11T16:34:59.775Z,5.97
2018-01-11T16:37:27.752Z,6.13
2018-01-11T16:39:55.888Z,5.93
2018-01-11T16:42:24.005Z,6.13
2018-01-11T16:44:52.858Z,6.00
2018-01-11T16:47:20.789Z,6.60
2018-01-11T16:49:48.862Z,7.50
2018-01-11T16:52:16.826Z,6.57
2018-01-11T16:54:44.760Z,9.30
2018-01-11T16:57:12.888Z,10.33
2018-01-11T16:59:41.622Z,7.80
2018-01-11T17:02:09.570Z,6.87
2018-01-11T17:04:37.645Z,5.93
2018-01-11T17:07:05.645Z,6.30
2018-01-11T17:09:33.599Z,6.20
2018-01-11T17:12:02.724Z,5.60
2018-01-11T17:14:30.784Z,6.23
2018-01-11T17:16:58.758Z,5.60
2018-01-11T17:19:26.821Z,7.23
2018-01-11T17:21:54.781Z,6.33
2018-01-11T17:24:22.716Z,8.60
2018-01-11T17:26:51.590Z,8.97
2018-01-11T17:29:19.531Z,10.40
2018-01-11T17:31:47.483Z,13.90
2018-01-11T17:34:15.536Z,12.93
2018-01-11T17:36:43.516Z,10.50
2018-01-11T17:39:11.445Z,10.53
2018-01-11T17:41:39.490Z,9.13
2018-01-11T17:44:07.434Z,7.10
2018-01-11T17:46:35.637Z,6.70
2018-01-11T17:49:03.721Z,6.80
2018-01-11T17:51:33.755Z,6.20
2018-01-11T17:54:01.740Z,5.77
2018-01-11T17:56:30.616Z,5.80
2018-01-11T17:58:58.613Z,5.57
2018-01-11T18:04:22.393Z,6.63
2018-01-11T18:18:24.608Z,6.87
2018-01-11T18:20:52.574Z,6.27
2018-01-11T18:23:20.527Z,8.17
2018-01-11T18:25:48.681Z,8.30
2018-01-11T18:28:16.636Z,7.23
2018-01-11T18:30:45.369Z,7.20
2018-01-11T18:33:13.453Z,7.70
2018-01-11T18:35:41.405Z,7.60
2018-01-11T18:38:09.372Z,8.27
2018-01-11T18:40:37.449Z,8.37
2018-01-11T18:43:05.388Z,8.67
2018-01-11T18:45:34.146Z,9.20
2018-01-11T18:48:02.359Z,9.67
2018-01-11T18:50:30.297Z,10.30
2018-01-11T18:52:58.237Z,8.80
2018-01-11T18:55:26.314Z,10.40
2018-01-11T18:57:54.253Z,16.73
2018-01-11T19:00:22.177Z,13.10
2018-01-11T19:02:50.272Z,12.70
2018-01-11T19:05:18.955Z,12.07
2018-01-11T19:07:47.629Z,12.03
2018-01-11T19:10:15.692Z,12.00
2018-01-11T19:12:43.628Z,12.37
2018-01-11T19:15:11.572Z,10.20
2018-01-11T19:17:39.718Z,11.30
2018-01-11T19:20:07.653Z,11.37
2018-01-11T19:22:35.596Z,11.23
2018-01-11T19:25:03.652Z,11.50
2018-01-11T19:27:32.342Z,12.03
2018-01-11T19:30:01.021Z,14.00
2018-01-11T19:32:29.812Z,21.73
2018-01-11T19:34:58.540Z,18.67
2018-01-11T19:37:26.489Z,14.97
2018-01-11T19:39:54.721Z,18.33
2018-01-11T19:42:22.684Z,22.07
2018-01-11T19:44:50.633Z,18.33
2018-01-11T19:47:18.690Z,23.00
2018-01-11T19:49:46.772Z,17.20
2018-01-11T19:52:14.708Z,24.40
2018-01-11T19:54:43.522Z,27.83
2018-01-11T19:57:11.459Z,25.60
2018-01-11T19:59:40.125Z,22.40
2018-01-11T20:02:08.206Z,18.43
2018-01-11T20:04:36.140Z,17.80
2018-01-11T20:07:04.109Z,15.47
2018-01-11T20:09:32.203Z,13.73
2018-01-11T20:12:00.121Z,13.97
2018-01-11T20:14:28.594Z,12.17
2018-01-11T20:16:56.711Z,11.50
2018-01-11T20:19:25.457Z,17.77
2018-01-11T20:21:54.142Z,17.70
2018-01-11T20:24:22.930Z,20.10
2018-01-11T20:26:51.596Z,19.53
2018-01-11T20:29:19.549Z,21.50
2018-01-11T20:31:47.600Z,18.67
2018-01-11T20:34:15.542Z,16.70
2018-01-11T20:36:43.678Z,15.93
2018-01-11T20:39:11.757Z,15.97
2018-01-11T20:41:39.690Z,14.90
2018-01-11T20:44:07.630Z,16.40
2018-01-11T20:46:35.752Z,16.70
2018-01-11T20:49:03.713Z,15.60
2018-01-11T20:51:31.805Z,15.70
2018-01-11T20:53:59.860Z,14.57
2018-01-11T20:56:27.824Z,14.33
2018-01-11T20:58:55.761Z,14.60
2018-01-11T21:01:23.948Z,14.37
2018-01-11T21:03:51.884Z,15.37
2018-01-11T21:06:20.568Z,14.70
2018-01-11T21:08:49.373Z,16.63
2018-01-11T21:11:18.042Z,16.97
2018-01-11T21:13:46.726Z,17.63
2018-01-11T21:16:15.609Z,16.87
2018-01-11T21:18:43.540Z,18.17
2018-01-11T21:21:11.485Z,15.70
2018-01-11T21:23:39.536Z,15.80
2018-01-11T21:26:08.290Z,15.33
2018-01-11T21:28:36.212Z,14.40
2018-01-11T21:31:04.282Z,14.40
2018-01-11T21:33:32.960Z,13.37
2018-01-11T21:36:01.701Z,13.27
2018-01-11T21:38:29.756Z,13.83
2018-01-11T21:40:57.700Z,14.37
2018-01-11T21:43:26.361Z,12.87
2018-01-11T21:45:54.430Z,14.60
2018-01-11T21:48:22.372Z,13.63
2018-01-11T21:50:50.313Z,13.93
2018-01-11T21:53:18.541Z,13.13
2018-01-11T21:55:46.580Z,13.63
2018-01-11T21:58:14.526Z,14.33
2018-01-11T22:00:42.618Z,13.73
2018-01-11T22:03:10.545Z,11.70
2018-01-11T22:05:39.229Z,12.30
2018-01-11T22:08:08.050Z,14.30
2018-01-11T22:10:35.994Z,12.57
2018-01-11T22:13:04.661Z,15.27
2018-01-11T22:15:32.746Z,14.57
2018-01-11T22:18:01.426Z,15.70
2018-01-11T22:20:29.361Z,18.10
2018-01-11T22:22:57.438Z,15.90
2018-01-11T22:25:25.382Z,14.87
2018-01-11T22:27:53.342Z,15.60
2018-01-11T22:30:21.396Z,16.27
2018-01-11T22:32:50.077Z,18.23
2018-01-11T22:35:18.774Z,16.87
2018-01-11T22:37:47.573Z,16.67
2018-01-11T22:40:16.258Z,17.43
2018-01-11T22:42:44.942Z,16.90
2018-01-11T22:45:13.762Z,15.43
2018-01-11T22:47:41.780Z,15.23
2018-01-11T22:50:10.472Z,14.70
2018-01-11T22:52:38.534Z,15.20
2018-01-11T22:55:06.613Z,15.00
2018-01-11T22:57:34.547Z,15.77
2018-01-11T23:00:02.624Z,15.40
2018-01-11T23:02:30.583Z,14.70
2018-01-11T23:04:58.521Z,14.83
2018-01-11T23:07:27.317Z,15.00
2018-01-11T23:09:56.016Z,15.63
2018-01-11T23:12:23.949Z,15.77
2018-01-11T23:14:52.014Z,17.03
2018-01-11T23:17:19.952Z,17.60
2018-01-11T23:19:47.885Z,18.00
2018-01-11T23:22:16.718Z,17.70
2018-01-11T23:24:44.669Z,19.37
2018-01-11T23:27:12.658Z,17.60
2018-01-11T23:29:40.729Z,16.90
2018-01-11T23:32:08.656Z,17.23
2018-01-11T23:34:37.317Z,16.60
2018-01-11T23:37:05.489Z,15.20
2018-01-11T23:39:33.548Z,16.03
2018-01-11T23:42:01.493Z,15.63
2018-01-11T23:44:29.568Z,15.30
2018-01-11T23:46:57.556Z,14.40
2018-01-11T23:49:25.513Z,14.80
2018-01-11T23:51:53.598Z,14.13
2018-01-11T23:54:21.543Z,14.43
2018-01-11T23:56:49.604Z,12.63
2018-01-11T23:59:17.804Z,12.00
